Freeburn, Kentucky
Current Conditions -  °F | °C
As of 4:35 PM on Monday 24 Nov 2014 (Local Time) from KPBX Reporting Station
Scattered Clouds Scattered Clouds  
Wind Chill: 64°   Ceiling: Unl
Heat Index: 64°   Visibility: 10mi
Dew Point: 39°   Wind: 12mph
Humidity: 39%   Direction: 240°WSW
Pressure: 29.72"   Gusts: 23mph
Location:  37.56°N, 82.14°W
Report Text: KPBX 242135Z AUTO 24010G20KT 210V270 10SM SCT080 18/04 A2972 RMK AO2 T01800038
Loading
Personal Weather Stations






























Interactive Weather Map New forecast layout! Learn more

10-Day Weather Forecast

Advertisements
Track Severe Weather on mobile